createdAt,value
2022-11-28T00:01:37.162Z,16.08
2022-11-28T00:04:04.700Z,13.18
2022-11-28T00:06:31.554Z,13.88
2022-11-28T00:08:59.023Z,15.45
2022-11-28T00:11:25.751Z,14.80
2022-11-28T00:13:52.491Z,14.70
2022-11-28T00:16:20.617Z,14.90
2022-11-28T00:18:47.940Z,13.48
2022-11-28T00:21:14.819Z,14.02
2022-11-28T00:23:42.161Z,12.02
2022-11-28T00:26:14.552Z,14.50
2022-11-28T00:28:42.265Z,13.18
2022-11-28T00:31:13.500Z,14.50
2022-11-28T00:33:40.306Z,13.00
2022-11-28T00:36:07.223Z,13.75
2022-11-28T00:38:33.841Z,14.75
2022-11-28T00:41:01.548Z,13.68
2022-11-28T00:43:28.281Z,14.13
2022-11-28T00:45:55.010Z,13.85
2022-11-28T00:48:21.737Z,13.07
2022-11-28T00:50:48.402Z,11.77
2022-11-28T00:53:15.178Z,13.50
2022-11-28T00:55:41.875Z,12.07
2022-11-28T00:58:08.543Z,13.07
2022-11-28T01:00:35.244Z,11.52
2022-11-28T01:03:01.864Z,11.05
2022-11-28T01:05:28.477Z,13.18
2022-11-28T01:07:55.179Z,12.68
2022-11-28T01:10:21.857Z,11.40
2022-11-28T01:12:48.480Z,11.80
2022-11-28T01:15:18.134Z,10.70
2022-11-28T01:17:44.855Z,9.80
2022-11-28T01:20:12.122Z,11.00
2022-11-28T01:22:38.840Z,9.63
2022-11-28T01:25:05.739Z,10.30
2022-11-28T01:27:32.312Z,10.10
2022-11-28T01:29:58.957Z,8.10
2022-11-28T01:32:25.589Z,9.93
2022-11-28T01:34:52.400Z,8.07
2022-11-28T01:37:19.025Z,9.07
2022-11-28T01:39:46.663Z,6.47
2022-11-28T01:42:20.430Z,8.20
2022-11-28T01:44:50.097Z,8.60
2022-11-28T01:47:20.753Z,8.55
2022-11-28T01:49:47.387Z,8.27
2022-11-28T01:52:15.844Z,11.07
2022-11-28T01:54:44.184Z,8.98
2022-11-28T01:57:18.724Z,10.13
2022-11-28T01:59:55.947Z,10.02
2022-11-28T02:02:29.774Z,12.35
2022-11-28T02:04:56.495Z,11.10
2022-11-28T02:07:23.098Z,10.48
2022-11-28T02:09:49.718Z,11.68
2022-11-28T02:12:34.965Z,9.93
2022-11-28T02:15:26.517Z,13.38
2022-11-28T02:17:56.164Z,12.02
2022-11-28T02:20:53.425Z,10.63
2022-11-28T02:23:31.928Z,11.00
2022-11-28T02:25:58.888Z,12.40
2022-11-28T02:28:36.435Z,10.40
2022-11-28T02:31:30.964Z,11.68
2022-11-28T02:33:59.383Z,10.68
2022-11-28T02:36:32.456Z,9.93
2022-11-28T02:39:19.250Z,11.23
2022-11-28T02:41:54.043Z,9.73
2022-11-28T02:44:24.813Z,9.88
2022-11-28T02:47:15.948Z,10.18
2022-11-28T02:49:49.685Z,11.00
2022-11-28T02:52:24.285Z,11.55
2022-11-28T02:54:51.114Z,11.73
2022-11-28T02:57:17.766Z,11.60
2022-11-28T02:59:49.561Z,12.95
2022-11-28T03:02:24.685Z,12.52
2022-11-28T03:05:15.518Z,13.00
2022-11-28T03:07:50.325Z,12.35
2022-11-28T03:10:32.605Z,11.75
2022-11-28T03:13:19.390Z,12.82
2022-11-28T03:16:28.796Z,13.00
2022-11-28T03:19:22.708Z,13.13
2022-11-28T03:21:57.226Z,13.52
2022-11-28T03:24:43.564Z,12.50
2022-11-28T03:27:10.364Z,14.00
2022-11-28T03:29:46.605Z,14.13
2022-11-28T03:32:24.597Z,13.90
2022-11-28T03:34:54.413Z,15.38
2022-11-28T03:39:51.585Z,14.75
2022-11-28T03:42:24.122Z,16.08
2022-11-28T03:45:07.709Z,16.33
2022-11-28T03:47:36.949Z,16.50
2022-11-28T03:50:06.553Z,16.58
2022-11-28T03:52:37.291Z,16.13
2022-11-28T03:55:06.048Z,16.38
2022-11-28T03:58:06.865Z,16.38
2022-11-28T04:03:22.174Z,15.50
2022-11-28T04:05:53.866Z,16.05
2022-11-28T04:08:38.769Z,17.90
2022-11-28T04:11:19.115Z,18.10
2022-11-28T04:14:04.488Z,17.30
2022-11-28T04:16:54.547Z,18.02
2022-11-28T04:20:00.298Z,18.35
2022-11-28T04:22:38.979Z,18.00
2022-11-28T04:25:10.095Z,18.20
2022-11-28T04:27:47.509Z,17.45
2022-11-28T04:30:14.302Z,19.38
2022-11-28T04:32:45.078Z,19.67
2022-11-28T04:35:16.561Z,20.20
2022-11-28T04:37:43.816Z,21.02
2022-11-28T04:40:10.914Z,19.92
2022-11-28T04:42:43.970Z,22.52
2022-11-28T04:45:22.149Z,21.33
2022-11-28T04:47:48.752Z,21.00
2022-11-28T04:50:15.535Z,24.00
2022-11-28T04:52:46.802Z,23.90
2022-11-28T04:55:17.872Z,22.30
2022-11-28T04:57:46.417Z,23.73
2022-11-28T05:00:14.712Z,26.17
2022-11-28T05:02:41.864Z,26.20
2022-11-28T05:05:16.678Z,25.88
2022-11-28T05:07:43.446Z,26.30
2022-11-28T05:10:11.090Z,27.30
2022-11-28T05:12:37.766Z,27.40
2022-11-28T05:15:04.890Z,25.98
2022-11-28T05:17:31.476Z,26.73
2022-11-28T05:19:58.150Z,26.30
2022-11-28T05:22:24.815Z,27.67
2022-11-28T05:24:51.700Z,29.27
2022-11-28T05:27:18.414Z,27.27
2022-11-28T05:29:51.753Z,29.48
2022-11-28T05:32:18.788Z,29.33
2022-11-28T05:34:45.553Z,29.92
2022-11-28T05:37:12.251Z,29.35
2022-11-28T05:39:39.057Z,28.23
2022-11-28T05:42:05.895Z,30.63
2022-11-28T05:44:32.507Z,30.98
2022-11-28T05:46:59.173Z,32.28
2022-11-28T05:49:25.914Z,30.77
2022-11-28T05:51:52.506Z,32.03
2022-11-28T05:54:19.093Z,33.92
2022-11-28T05:56:48.973Z,31.55
2022-11-28T05:59:15.798Z,35.00
2022-11-28T06:01:42.547Z,34.65
2022-11-28T06:04:09.382Z,38.60
2022-11-28T06:06:36.196Z,33.17
2022-11-28T06:09:03.350Z,35.88
2022-11-28T06:11:31.226Z,30.95
2022-11-28T06:13:58.068Z,30.52
2022-11-28T06:16:26.582Z,33.58
2022-11-28T06:18:58.209Z,33.42
2022-11-28T06:21:25.124Z,35.80
2022-11-28T06:23:51.823Z,33.15
2022-11-28T06:26:20.250Z,35.42
2022-11-28T06:28:46.970Z,33.95
2022-11-28T06:31:20.276Z,35.28
2022-11-28T06:33:48.151Z,33.70
2022-11-28T06:36:15.751Z,36.53
2022-11-28T06:38:42.456Z,30.13
2022-11-28T06:41:11.586Z,31.30
2022-11-28T06:43:38.844Z,31.02
2022-11-28T06:46:05.816Z,36.03
2022-11-28T06:48:35.502Z,34.80
2022-11-28T06:51:03.490Z,34.17
2022-11-28T06:53:31.585Z,32.92
2022-11-28T06:55:58.882Z,33.90
2022-11-28T06:58:25.976Z,33.88
2022-11-28T07:00:52.624Z,30.40
2022-11-28T07:03:19.276Z,30.65
2022-11-28T07:05:45.930Z,31.42
2022-11-28T07:08:12.619Z,31.20
2022-11-28T07:10:39.349Z,32.30
2022-11-28T07:13:05.964Z,31.13
2022-11-28T07:15:32.548Z,30.73
2022-11-28T07:17:59.214Z,32.28
2022-11-28T07:20:25.842Z,32.60
2022-11-28T07:22:52.529Z,32.15
2022-11-28T07:25:19.173Z,29.38
2022-11-28T07:27:45.771Z,29.98
2022-11-28T07:30:12.627Z,30.13
2022-11-28T07:32:39.911Z,30.33
2022-11-28T07:35:07.127Z,29.33
2022-11-28T07:37:33.705Z,29.85
2022-11-28T07:40:00.602Z,29.30
2022-11-28T07:42:27.680Z,29.95
2022-11-28T07:44:54.326Z,31.25
2022-11-28T07:47:21.066Z,30.20
2022-11-28T07:49:47.689Z,28.63
2022-11-28T07:52:14.421Z,28.73
2022-11-28T07:54:41.111Z,29.50
2022-11-28T07:57:12.536Z,30.65
2022-11-28T07:59:40.030Z,26.08
2022-11-28T08:02:07.151Z,30.13
2022-11-28T08:04:33.971Z,28.60
2022-11-28T08:07:00.674Z,29.75
2022-11-28T08:09:27.467Z,30.13
2022-11-28T08:11:54.376Z,31.45
2022-11-28T08:14:21.054Z,30.48
2022-11-28T08:16:47.772Z,30.00
2022-11-28T08:19:14.538Z,31.35
2022-11-28T08:21:42.096Z,32.05
2022-11-28T08:24:08.873Z,29.85
2022-11-28T08:26:35.596Z,28.13
2022-11-28T08:29:02.523Z,30.63
2022-11-28T08:31:36.535Z,30.33
2022-11-28T08:34:05.261Z,30.52
2022-11-28T08:36:32.073Z,28.85
2022-11-28T08:39:17.133Z,29.05
2022-11-28T08:41:48.814Z,28.20
2022-11-28T08:44:15.495Z,29.10
2022-11-28T08:46:42.103Z,27.42
2022-11-28T08:49:08.730Z,30.67
2022-11-28T08:51:35.545Z,31.17
2022-11-28T08:54:02.189Z,28.42
2022-11-28T08:56:28.787Z,29.85
2022-11-28T08:58:55.622Z,29.13
2022-11-28T09:01:24.121Z,26.92
2022-11-28T09:03:51.060Z,31.80
2022-11-28T09:06:17.861Z,32.25
2022-11-28T09:08:44.751Z,29.45
2022-11-28T09:11:12.695Z,32.47
2022-11-28T09:13:39.309Z,31.80
2022-11-28T09:16:06.146Z,30.38
2022-11-28T09:18:32.806Z,29.88
2022-11-28T09:21:04.534Z,31.02
2022-11-28T09:23:31.146Z,32.58
2022-11-28T09:25:57.864Z,28.00
2022-11-28T09:28:24.764Z,28.27
2022-11-28T09:30:59.250Z,28.45
2022-11-28T09:33:26.149Z,28.33
2022-11-28T09:36:03.916Z,29.17
2022-11-28T09:38:30.533Z,27.35
2022-11-28T09:40:57.113Z,29.58
2022-11-28T09:43:38.171Z,28.90
2022-11-28T09:46:06.082Z,27.85
2022-11-28T09:48:38.179Z,28.52
2022-11-28T09:51:17.388Z,28.80
2022-11-28T09:53:55.890Z,28.05
2022-11-28T09:56:22.598Z,31.35
2022-11-28T09:58:55.185Z,25.60
2022-11-28T10:01:39.743Z,30.42
2022-11-28T10:04:29.812Z,28.85
2022-11-28T10:07:06.346Z,32.60
2022-11-28T10:09:45.471Z,29.60
2022-11-28T10:12:24.198Z,29.27
2022-11-28T10:15:19.751Z,28.20
2022-11-28T10:17:52.100Z,25.88
2022-11-28T10:20:25.923Z,25.20
2022-11-28T10:23:22.976Z,23.95
2022-11-28T10:25:51.305Z,24.23
2022-11-28T10:28:23.476Z,25.92
2022-11-28T10:31:28.387Z,26.50
2022-11-28T10:34:02.344Z,30.70
2022-11-28T10:36:31.792Z,26.88
2022-11-28T10:39:00.617Z,25.92
2022-11-28T10:41:32.098Z,24.83
2022-11-28T10:44:02.800Z,23.83
2022-11-28T10:46:56.941Z,22.83
2022-11-28T10:49:50.274Z,23.58
2022-11-28T10:52:31.287Z,21.85
2022-11-28T10:55:07.655Z,21.83
2022-11-28T10:57:43.195Z,23.98
2022-11-28T11:00:14.234Z,19.35
2022-11-28T11:02:54.606Z,22.23
2022-11-28T11:05:24.605Z,20.33
2022-11-28T11:07:59.561Z,21.23
2022-11-28T11:10:30.457Z,21.38
2022-11-28T11:12:57.244Z,19.40
2022-11-28T11:15:43.245Z,19.02
2022-11-28T11:18:24.645Z,18.40
2022-11-28T11:20:51.552Z,15.98
2022-11-28T11:23:19.981Z,16.77
2022-11-28T11:26:03.057Z,16.45
2022-11-28T11:28:34.391Z,17.67
2022-11-28T11:31:05.847Z,16.05
2022-11-28T11:33:36.801Z,16.13
2022-11-28T11:36:04.791Z,15.50
2022-11-28T11:38:37.707Z,15.70
2022-11-28T11:41:29.150Z,14.82
2022-11-28T11:43:56.751Z,15.90
2022-11-28T11:46:23.411Z,14.98
2022-11-28T11:48:52.409Z,15.68
2022-11-28T11:51:28.765Z,13.73
2022-11-28T11:54:13.668Z,15.68
2022-11-28T11:56:42.175Z,14.00
2022-11-28T11:59:34.006Z,13.27
2022-11-28T12:02:03.099Z,12.65
2022-11-28T12:04:55.207Z,11.65
2022-11-28T12:07:25.348Z,10.25
2022-11-28T12:09:54.463Z,11.63
2022-11-28T12:12:25.136Z,10.32
2022-11-28T12:14:51.790Z,11.07
2022-11-28T12:17:53.414Z,11.15
2022-11-28T12:20:30.182Z,10.70
2022-11-28T12:23:25.978Z,11.48
2022-11-28T12:26:17.651Z,10.45
2022-11-28T12:28:53.459Z,11.25
2022-11-28T12:34:04.253Z,11.93
2022-11-28T12:36:39.627Z,13.90
2022-11-28T12:39:12.589Z,12.07
2022-11-28T12:42:03.592Z,11.57
2022-11-28T12:44:48.490Z,11.15
2022-11-28T12:47:34.110Z,12.38
2022-11-28T12:50:16.783Z,12.85
2022-11-28T12:53:03.252Z,14.18
2022-11-28T12:55:51.638Z,12.82
2022-11-28T13:01:14.496Z,13.07
2022-11-28T13:04:10.382Z,12.68
2022-11-28T13:06:40.677Z,13.55
2022-11-28T13:09:45.941Z,15.30
2022-11-28T13:12:40.418Z,16.33
2022-11-28T13:15:38.251Z,13.85
2022-11-28T13:18:41.992Z,13.95
2022-11-28T13:21:11.081Z,15.18
2022-11-28T13:23:44.005Z,14.15
2022-11-28T13:26:47.971Z,14.82
2022-11-28T13:29:46.681Z,14.55
2022-11-28T13:32:19.605Z,14.02
2022-11-28T13:34:46.680Z,14.05
2022-11-28T13:40:21.268Z,13.82
2022-11-28T13:43:04.401Z,14.40
2022-11-28T13:45:39.350Z,15.07
2022-11-28T13:48:57.299Z,15.38
2022-11-28T13:51:30.578Z,14.48
2022-11-28T13:54:17.359Z,13.82
2022-11-28T13:57:10.793Z,15.15
2022-11-28T13:59:37.455Z,16.13
2022-11-28T14:02:05.587Z,14.32
2022-11-28T14:04:32.308Z,18.40
2022-11-28T14:07:03.666Z,17.55
2022-11-28T14:09:55.250Z,18.13
2022-11-28T14:12:41.104Z,19.25
2022-11-28T14:15:10.052Z,19.35
2022-11-28T14:18:01.696Z,21.00
2022-11-28T14:20:48.615Z,20.90
2022-11-28T14:23:43.180Z,22.40
2022-11-28T14:26:38.576Z,21.77
2022-11-28T14:29:07.525Z,22.88
2022-11-28T14:31:37.838Z,23.58
2022-11-28T14:34:25.605Z,24.15
2022-11-28T14:37:13.413Z,20.92
2022-11-28T14:39:40.078Z,21.33
2022-11-28T14:42:06.725Z,20.45
2022-11-28T14:44:46.349Z,22.02
2022-11-28T14:47:24.756Z,21.40
2022-11-28T14:50:09.818Z,20.48
2022-11-28T14:52:39.570Z,22.05
2022-11-28T14:55:12.720Z,22.17
2022-11-28T14:57:53.059Z,21.70
2022-11-28T15:00:38.506Z,21.63
2022-11-28T15:03:21.531Z,21.42
2022-11-28T15:05:54.705Z,22.58
2022-11-28T15:08:43.062Z,22.80
2022-11-28T15:11:25.596Z,20.23
2022-11-28T15:14:16.869Z,22.85
2022-11-28T15:16:50.556Z,23.17
2022-11-28T15:19:22.313Z,22.95
2022-11-28T15:21:55.503Z,23.92
2022-11-28T15:24:32.220Z,23.58
2022-11-28T15:27:18.216Z,23.70
2022-11-28T15:29:57.529Z,23.27
2022-11-28T15:32:25.095Z,22.45
2022-11-28T15:35:10.877Z,23.38
2022-11-28T15:37:39.125Z,23.92
2022-11-28T15:40:37.169Z,22.10
2022-11-28T15:43:08.034Z,19.95
2022-11-28T15:45:39.296Z,23.02
2022-11-28T15:48:06.207Z,24.75
2022-11-28T15:50:33.200Z,25.27
2022-11-28T15:53:00.716Z,25.27
2022-11-28T15:55:32.111Z,35.10
2022-11-28T15:58:21.883Z,28.67
2022-11-28T16:00:54.225Z,21.05
2022-11-28T16:03:25.145Z,24.60
2022-11-28T16:05:52.661Z,22.25
2022-11-28T16:08:32.042Z,22.98
2022-11-28T16:10:59.677Z,22.02
2022-11-28T16:13:26.541Z,21.00
2022-11-28T16:15:53.655Z,21.10
2022-11-28T16:18:20.456Z,21.27
2022-11-28T16:20:47.258Z,19.50
2022-11-28T16:23:34.751Z,20.48
2022-11-28T16:26:19.499Z,18.63
2022-11-28T16:29:14.446Z,18.92
2022-11-28T16:31:42.525Z,18.35
2022-11-28T16:34:12.641Z,19.65
2022-11-28T16:36:39.513Z,19.58
2022-11-28T16:39:09.121Z,20.58
2022-11-28T16:41:36.027Z,20.58
2022-11-28T16:44:04.673Z,19.42
2022-11-28T16:46:34.684Z,20.73
2022-11-28T16:49:02.461Z,19.70
2022-11-28T16:51:33.802Z,20.92
2022-11-28T16:54:21.513Z,18.98
2022-11-28T16:56:48.244Z,17.98
2022-11-28T16:59:19.342Z,18.30
2022-11-28T17:01:47.213Z,19.80
2022-11-28T17:04:20.524Z,19.38
2022-11-28T17:06:47.217Z,17.80
2022-11-28T17:09:27.146Z,19.58
2022-11-28T17:11:59.347Z,18.33
2022-11-28T17:14:25.978Z,18.05
2022-11-28T17:16:52.659Z,18.95
2022-11-28T17:19:19.486Z,19.15
2022-11-28T17:21:48.864Z,20.20
2022-11-28T17:24:24.020Z,22.13
2022-11-28T17:26:51.512Z,24.80
2022-11-28T17:29:18.413Z,23.77
2022-11-28T17:31:45.451Z,25.38
2022-11-28T17:34:21.702Z,24.63
2022-11-28T17:36:48.555Z,24.00
2022-11-28T17:39:15.575Z,23.45
2022-11-28T17:41:42.467Z,23.13
2022-11-28T17:44:26.189Z,23.95
2022-11-28T17:46:53.793Z,25.17
2022-11-28T17:49:20.595Z,24.27
2022-11-28T17:51:47.472Z,24.73
2022-11-28T17:54:15.345Z,24.80
2022-11-28T17:56:42.852Z,24.30
2022-11-28T17:59:13.361Z,27.08
2022-11-28T18:01:40.432Z,27.80
2022-11-28T18:04:07.219Z,27.20
2022-11-28T18:06:33.896Z,28.63
2022-11-28T18:09:01.114Z,28.67
2022-11-28T18:11:28.110Z,28.65
2022-11-28T18:13:55.709Z,27.42
2022-11-28T18:16:23.395Z,25.90
2022-11-28T18:18:50.284Z,25.88
2022-11-28T18:21:18.907Z,25.08
2022-11-28T18:23:49.690Z,26.98
2022-11-28T18:26:18.513Z,26.27
2022-11-28T18:28:45.312Z,25.95
2022-11-28T18:31:22.252Z,27.05
2022-11-28T18:33:49.290Z,27.80
2022-11-28T18:36:23.954Z,29.17
2022-11-28T18:38:57.295Z,27.67
2022-11-28T18:41:25.258Z,29.35
2022-11-28T18:43:57.929Z,29.20
2022-11-28T18:46:25.176Z,28.90
2022-11-28T18:48:51.981Z,26.77
2022-11-28T18:51:20.432Z,30.98
2022-11-28T18:53:47.855Z,29.33
2022-11-28T18:56:21.244Z,30.35
2022-11-28T18:58:49.187Z,31.27
2022-11-28T19:01:17.889Z,36.08
2022-11-28T19:03:48.578Z,33.55
2022-11-28T19:06:15.724Z,31.95
2022-11-28T19:08:42.446Z,34.08
2022-11-28T19:11:10.966Z,32.35
2022-11-28T19:13:48.199Z,32.72
2022-11-28T19:18:58.043Z,32.40
2022-11-28T19:21:26.700Z,33.30
2022-11-28T19:23:55.446Z,31.83
2022-11-28T19:26:22.906Z,33.58
2022-11-28T19:28:49.775Z,32.97
2022-11-28T19:31:20.529Z,33.08
2022-11-28T19:34:13.794Z,33.10
2022-11-28T19:36:47.890Z,30.80
2022-11-28T19:39:24.473Z,31.38
2022-11-28T19:42:01.955Z,31.42
2022-11-28T19:44:29.118Z,31.63
2022-11-28T19:46:57.800Z,30.45
2022-11-28T19:49:24.880Z,31.40
2022-11-28T19:51:53.059Z,31.50
2022-11-28T19:54:19.989Z,30.85
2022-11-28T19:56:47.319Z,31.80
2022-11-28T19:59:15.373Z,30.50
2022-11-28T20:01:43.762Z,30.60
2022-11-28T20:04:10.837Z,30.98
2022-11-28T20:06:37.619Z,29.38
2022-11-28T20:09:08.347Z,29.23
2022-11-28T20:11:35.272Z,29.85
2022-11-28T20:14:16.106Z,30.67
2022-11-28T20:16:43.020Z,29.13
2022-11-28T20:19:09.912Z,31.10
2022-11-28T20:21:36.652Z,31.27
2022-11-28T20:24:04.428Z,30.40
2022-11-28T20:26:33.690Z,30.55
2022-11-28T20:29:00.398Z,30.52
2022-11-28T20:31:33.645Z,29.13
2022-11-28T20:34:00.752Z,31.00
2022-11-28T20:36:28.325Z,29.40
2022-11-28T20:38:55.879Z,28.95
2022-11-28T20:41:23.555Z,30.13
2022-11-28T20:43:50.369Z,30.58
2022-11-28T20:46:25.152Z,29.05
2022-11-28T20:48:51.997Z,29.40
2022-11-28T20:51:23.044Z,28.85
2022-11-28T20:53:49.709Z,28.52
2022-11-28T20:56:27.235Z,29.52
2022-11-28T20:58:53.902Z,27.77
2022-11-28T21:01:22.639Z,30.17
2022-11-28T21:03:50.993Z,28.83
2022-11-28T21:06:18.196Z,29.92
2022-11-28T21:08:44.919Z,27.73
2022-11-28T21:11:30.909Z,30.52
2022-11-28T21:14:03.303Z,28.83
2022-11-28T21:16:30.628Z,31.48
2022-11-28T21:19:05.435Z,30.38
2022-11-28T21:21:33.329Z,32.03
2022-11-28T21:24:01.663Z,26.80
2022-11-28T21:26:30.490Z,29.73
2022-11-28T21:28:59.885Z,27.88
2022-11-28T21:31:28.265Z,31.10
2022-11-28T21:33:58.604Z,30.05
2022-11-28T21:36:26.017Z,31.25
2022-11-28T21:38:57.019Z,30.67
2022-11-28T21:41:26.676Z,28.77
2022-11-28T21:43:53.951Z,29.23
2022-11-28T21:46:20.805Z,29.33
2022-11-28T21:48:47.461Z,30.80
2022-11-28T21:51:18.623Z,29.98
2022-11-28T21:53:46.027Z,29.63
2022-11-28T21:56:12.963Z,30.95
2022-11-28T21:58:39.877Z,27.75
2022-11-28T22:01:08.392Z,28.98
2022-11-28T22:03:35.441Z,27.50
2022-11-28T22:06:02.734Z,27.45
2022-11-28T22:08:29.687Z,26.52
2022-11-28T22:10:56.537Z,27.02
2022-11-28T22:13:23.179Z,27.75
2022-11-28T22:15:49.918Z,27.65
2022-11-28T22:18:16.545Z,26.50
2022-11-28T22:20:45.726Z,25.65
2022-11-28T22:23:14.462Z,24.08
2022-11-28T22:25:49.409Z,24.73
2022-11-28T22:28:16.124Z,26.05
2022-11-28T22:30:42.719Z,25.52
2022-11-28T22:33:09.361Z,25.77
2022-11-28T22:35:35.950Z,26.17
2022-11-28T22:38:02.651Z,25.17
2022-11-28T22:40:29.338Z,23.95
2022-11-28T22:42:56.161Z,24.85
2022-11-28T22:45:22.874Z,22.23
2022-11-28T22:47:49.503Z,23.05
2022-11-28T22:50:16.247Z,23.85
2022-11-28T22:52:42.863Z,23.27
2022-11-28T22:55:09.639Z,24.00
2022-11-28T22:57:36.323Z,24.27
2022-11-28T23:00:04.281Z,24.48
2022-11-28T23:02:30.919Z,23.98
2022-11-28T23:04:57.557Z,24.33
2022-11-28T23:07:24.244Z,23.95
2022-11-28T23:09:50.881Z,24.38
2022-11-28T23:12:17.523Z,23.65
2022-11-28T23:14:44.360Z,23.33
2022-11-28T23:17:11.059Z,23.13
2022-11-28T23:19:37.800Z,22.73
2022-11-28T23:22:04.403Z,23.17
2022-11-28T23:24:31.037Z,21.58
2022-11-28T23:26:57.683Z,22.75
2022-11-28T23:29:24.269Z,23.30
2022-11-28T23:31:51.012Z,26.48
2022-11-28T23:34:17.822Z,22.65
2022-11-28T23:36:45.926Z,23.85
2022-11-28T23:39:20.221Z,22.77
2022-11-28T23:41:46.924Z,22.95
2022-11-28T23:44:14.134Z,24.55
2022-11-28T23:46:41.007Z,22.08
2022-11-28T23:49:07.784Z,22.33
2022-11-28T23:51:34.430Z,23.60
2022-11-28T23:54:01.051Z,21.98
2022-11-28T23:56:30.531Z,23.25
2022-11-28T23:58:57.251Z,23.40
